sensor_id;sensor_type;location;lat;lon;timestamp;pressure;altitude;pressure_sealevel;temperature;humidity
64632;BME280;58358;50.936;0.246;2023-03-14T00:00:38;98319.28;;;6.54;100.00
64632;BME280;58358;50.936;0.246;2023-03-14T00:03:03;98316.80;;;6.29;100.00
64632;BME280;58358;50.936;0.246;2023-03-14T00:05:29;98312.89;;;6.18;100.00
64632;BME280;58358;50.936;0.246;2023-03-14T00:07:54;98314.01;;;5.81;100.00
64632;BME280;58358;50.936;0.246;2023-03-14T00:10:20;98313.98;;;6.39;100.00
64632;BME280;58358;50.936;0.246;2023-03-14T00:12:46;98307.67;;;6.77;100.00
64632;BME280;58358;50.936;0.246;2023-03-14T00:15:12;98308.36;;;5.83;100.00
64632;BME280;58358;50.936;0.246;2023-03-14T00:17:38;98304.67;;;6.23;100.00
64632;BME280;58358;50.936;0.246;2023-03-14T00:20:04;98302.37;;;6.07;100.00
64632;BME280;58358;50.936;0.246;2023-03-14T00:22:29;98301.42;;;6.68;100.00
64632;BME280;58358;50.936;0.246;2023-03-14T00:24:54;98300.17;;;5.81;100.00
64632;BME280;58358;50.936;0.246;2023-03-14T00:27:20;98296.50;;;6.38;100.00
64632;BME280;58358;50.936;0.246;2023-03-14T00:29:46;98299.56;;;6.20;100.00
64632;BME280;58358;50.936;0.246;2023-03-14T00:32:11;98299.33;;;6.33;100.00
64632;BME280;58358;50.936;0.246;2023-03-14T00:34:37;98297.97;;;6.98;100.00
64632;BME280;58358;50.936;0.246;2023-03-14T00:37:03;98300.88;;;6.93;100.00
64632;BME280;58358;50.936;0.246;2023-03-14T00:39:29;98302.08;;;6.83;100.00
64632;BME280;58358;50.936;0.246;2023-03-14T00:41:54;98303.02;;;6.52;100.00
64632;BME280;58358;50.936;0.246;2023-03-14T00:44:19;98297.98;;;6.31;100.00
64632;BME280;58358;50.936;0.246;2023-03-14T00:46:45;98299.50;;;6.42;100.00
64632;BME280;58358;50.936;0.246;2023-03-14T00:49:11;98295.79;;;6.35;100.00
64632;BME280;58358;50.936;0.246;2023-03-14T00:51:37;98296.57;;;6.29;100.00
64632;BME280;58358;50.936;0.246;2023-03-14T00:54:03;98294.49;;;6.50;100.00
64632;BME280;58358;50.936;0.246;2023-03-14T00:56:28;98295.17;;;6.51;100.00
64632;BME280;58358;50.936;0.246;2023-03-14T00:58:54;98300.38;;;6.55;100.00
64632;BME280;58358;50.936;0.246;2023-03-14T01:01:19;98294.39;;;6.29;100.00
64632;BME280;58358;50.936;0.246;2023-03-14T01:03:45;98290.65;;;6.43;100.00
64632;BME280;58358;50.936;0.246;2023-03-14T01:06:14;98295.16;;;6.75;100.00
64632;BME280;58358;50.936;0.246;2023-03-14T01:08:37;98293.64;;;6.90;100.00
64632;BME280;58358;50.936;0.246;2023-03-14T01:11:06;98289.24;;;6.59;100.00
64632;BME280;58358;50.936;0.246;2023-03-14T01:13:27;98286.28;;;6.20;100.00
64632;BME280;58358;50.936;0.246;2023-03-14T01:15:53;98286.97;;;6.09;100.00
64632;BME280;58358;50.936;0.246;2023-03-14T01:18:19;98288.02;;;5.89;100.00
64632;BME280;58358;50.936;0.246;2023-03-14T01:20:45;98289.57;;;6.09;100.00
64632;BME280;58358;50.936;0.246;2023-03-14T01:23:10;98288.66;;;6.34;100.00
64632;BME280;58358;50.936;0.246;2023-03-14T01:25:41;98290.68;;;6.61;100.00
64632;BME280;58358;50.936;0.246;2023-03-14T01:28:02;98293.75;;;6.13;100.00
64632;BME280;58358;50.936;0.246;2023-03-14T01:30:28;98291.92;;;6.40;100.00
64632;BME280;58358;50.936;0.246;2023-03-14T01:32:54;98287.45;;;6.86;100.00
64632;BME280;58358;50.936;0.246;2023-03-14T01:35:19;98291.45;;;6.43;100.00
64632;BME280;58358;50.936;0.246;2023-03-14T01:37:45;98288.89;;;6.22;100.00
64632;BME280;58358;50.936;0.246;2023-03-14T01:40:11;98286.98;;;6.34;100.00
64632;BME280;58358;50.936;0.246;2023-03-14T01:42:36;98286.21;;;6.48;100.00
64632;BME280;58358;50.936;0.246;2023-03-14T01:45:02;98284.73;;;5.75;100.00
64632;BME280;58358;50.936;0.246;2023-03-14T01:47:28;98286.71;;;6.03;100.00
64632;BME280;58358;50.936;0.246;2023-03-14T01:49:58;98287.42;;;6.08;100.00
64632;BME280;58358;50.936;0.246;2023-03-14T01:52:23;98286.55;;;6.33;100.00
64632;BME280;58358;50.936;0.246;2023-03-14T01:54:48;98288.89;;;6.32;100.00
64632;BME280;58358;50.936;0.246;2023-03-14T01:57:14;98291.03;;;6.15;100.00
64632;BME280;58358;50.936;0.246;2023-03-14T01:59:38;98289.85;;;6.45;100.00
64632;BME280;58358;50.936;0.246;2023-03-14T02:02:04;98295.61;;;6.63;100.00
64632;BME280;58358;50.936;0.246;2023-03-14T02:04:30;98299.32;;;6.61;100.00
64632;BME280;58358;50.936;0.246;2023-03-14T02:06:58;98296.62;;;6.65;100.00
64632;BME280;58358;50.936;0.246;2023-03-14T02:09:20;98300.77;;;6.26;100.00
64632;BME280;58358;50.936;0.246;2023-03-14T02:11:46;98304.27;;;5.78;100.00
64632;BME280;58358;50.936;0.246;2023-03-14T02:14:21;98299.50;;;6.11;100.00
64632;BME280;58358;50.936;0.246;2023-03-14T02:16:37;98305.90;;;6.18;100.00
64632;BME280;58358;50.936;0.246;2023-03-14T02:19:05;98317.68;;;6.08;100.00
64632;BME280;58358;50.936;0.246;2023-03-14T02:21:38;98354.47;;;6.14;100.00
64632;BME280;58358;50.936;0.246;2023-03-14T02:24:01;98386.11;;;5.75;100.00
64632;BME280;58358;50.936;0.246;2023-03-14T02:26:23;98402.94;;;4.43;100.00
64632;BME280;58358;50.936;0.246;2023-03-14T02:28:46;98407.30;;;3.96;100.00
64632;BME280;58358;50.936;0.246;2023-03-14T02:31:12;98429.21;;;3.28;100.00
64632;BME280;58358;50.936;0.246;2023-03-14T02:33:38;98425.84;;;3.55;100.00
64632;BME280;58358;50.936;0.246;2023-03-14T02:36:06;98436.72;;;3.12;100.00
64632;BME280;58358;50.936;0.246;2023-03-14T02:38:33;98452.06;;;2.63;100.00
64632;BME280;58358;50.936;0.246;2023-03-14T02:40:55;98456.10;;;2.57;100.00
64632;BME280;58358;50.936;0.246;2023-03-14T02:43:21;98462.69;;;2.33;100.00
64632;BME280;58358;50.936;0.246;2023-03-14T02:45:48;98486.14;;;2.90;100.00
64632;BME280;58358;50.936;0.246;2023-03-14T02:48:15;98495.25;;;2.75;100.00
64632;BME280;58358;50.936;0.246;2023-03-14T02:50:39;98500.83;;;2.87;100.00
64632;BME280;58358;50.936;0.246;2023-03-14T02:53:04;98500.07;;;2.89;100.00
64632;BME280;58358;50.936;0.246;2023-03-14T02:55:30;98503.30;;;2.94;100.00
64632;BME280;58358;50.936;0.246;2023-03-14T02:57:56;98516.69;;;2.89;100.00
64632;BME280;58358;50.936;0.246;2023-03-14T03:00:22;98520.71;;;2.79;100.00
64632;BME280;58358;50.936;0.246;2023-03-14T03:02:47;98538.43;;;2.96;100.00
64632;BME280;58358;50.936;0.246;2023-03-14T03:05:13;98542.39;;;2.94;100.00
64632;BME280;58358;50.936;0.246;2023-03-14T03:07:39;98550.11;;;3.07;100.00
64632;BME280;58358;50.936;0.246;2023-03-14T03:10:06;98564.33;;;3.59;100.00
64632;BME280;58358;50.936;0.246;2023-03-14T03:12:31;98579.19;;;3.23;100.00
64632;BME280;58358;50.936;0.246;2023-03-14T03:14:57;98577.74;;;3.33;100.00
64632;BME280;58358;50.936;0.246;2023-03-14T03:17:22;98591.20;;;3.64;100.00
64632;BME280;58358;50.936;0.246;2023-03-14T03:19:48;98590.67;;;3.26;100.00
64632;BME280;58358;50.936;0.246;2023-03-14T03:22:14;98593.24;;;3.11;100.00
64632;BME280;58358;50.936;0.246;2023-03-14T03:24:40;98602.14;;;2.84;100.00
64632;BME280;58358;50.936;0.246;2023-03-14T03:27:05;98615.63;;;2.82;100.00
64632;BME280;58358;50.936;0.246;2023-03-14T03:29:31;98615.55;;;2.27;100.00
64632;BME280;58358;50.936;0.246;2023-03-14T03:31:57;98628.99;;;2.40;100.00
64632;BME280;58358;50.936;0.246;2023-03-14T03:34:23;98631.44;;;2.98;100.00
64632;BME280;58358;50.936;0.246;2023-03-14T03:36:49;98650.01;;;2.33;100.00
64632;BME280;58358;50.936;0.246;2023-03-14T03:39:15;98649.08;;;2.32;100.00
64632;BME280;58358;50.936;0.246;2023-03-14T03:41:40;98652.19;;;2.66;100.00
64632;BME280;58358;50.936;0.246;2023-03-14T03:44:06;98662.90;;;3.20;97.21
64632;BME280;58358;50.936;0.246;2023-03-14T03:46:32;98668.48;;;2.37;100.00
64632;BME280;58358;50.936;0.246;2023-03-14T03:48:59;98672.05;;;2.10;100.00
64632;BME280;58358;50.936;0.246;2023-03-14T03:51:24;98682.23;;;2.75;99.67
64632;BME280;58358;50.936;0.246;2023-03-14T03:53:49;98687.36;;;2.22;99.34
64632;BME280;58358;50.936;0.246;2023-03-14T03:56:15;98695.60;;;2.25;99.78
64632;BME280;58358;50.936;0.246;2023-03-14T03:58:40;98706.71;;;2.48;98.42
64632;BME280;58358;50.936;0.246;2023-03-14T04:01:06;98713.23;;;2.25;98.51
64632;BME280;58358;50.936;0.246;2023-03-14T04:03:30;98720.77;;;2.34;98.03
64632;BME280;58358;50.936;0.246;2023-03-14T04:05:58;98730.29;;;2.40;96.99
64632;BME280;58358;50.936;0.246;2023-03-14T04:08:21;98738.56;;;2.69;95.76
64632;BME280;58358;50.936;0.246;2023-03-14T04:10:47;98751.26;;;2.36;96.49
64632;BME280;58358;50.936;0.246;2023-03-14T04:13:12;98765.09;;;1.95;97.13
64632;BME280;58358;50.936;0.246;2023-03-14T04:15:38;98770.92;;;1.70;97.18
64632;BME280;58358;50.936;0.246;2023-03-14T04:18:03;98787.20;;;2.15;97.39
64632;BME280;58358;50.936;0.246;2023-03-14T04:20:29;98807.50;;;2.03;95.43
64632;BME280;58358;50.936;0.246;2023-03-14T04:22:54;98812.42;;;1.84;95.32
64632;BME280;58358;50.936;0.246;2023-03-14T04:25:19;98812.84;;;2.19;93.09
64632;BME280;58358;50.936;0.246;2023-03-14T04:27:44;98839.66;;;1.69;92.48
64632;BME280;58358;50.936;0.246;2023-03-14T04:30:11;98845.34;;;2.16;91.19
64632;BME280;58358;50.936;0.246;2023-03-14T04:32:35;98840.04;;;1.55;92.88
64632;BME280;58358;50.936;0.246;2023-03-14T04:35:01;98853.36;;;1.71;91.41
64632;BME280;58358;50.936;0.246;2023-03-14T04:37:26;98858.52;;;1.35;91.25
64632;BME280;58358;50.936;0.246;2023-03-14T04:39:52;98863.53;;;1.34;90.78
64632;BME280;58358;50.936;0.246;2023-03-14T04:42:17;98876.94;;;1.48;89.95
64632;BME280;58358;50.936;0.246;2023-03-14T04:44:43;98886.65;;;1.51;88.61
64632;BME280;58358;50.936;0.246;2023-03-14T04:47:08;98892.09;;;1.70;89.56
64632;BME280;58358;50.936;0.246;2023-03-14T04:49:33;98911.52;;;1.35;89.62
64632;BME280;58358;50.936;0.246;2023-03-14T04:51:59;98910.61;;;1.49;89.46
64632;BME280;58358;50.936;0.246;2023-03-14T04:54:24;98933.71;;;2.00;88.68
64632;BME280;58358;50.936;0.246;2023-03-14T04:56:49;98926.66;;;1.62;89.15
64632;BME280;58358;50.936;0.246;2023-03-14T04:59:15;98933.17;;;2.06;87.47
64632;BME280;58358;50.936;0.246;2023-03-14T05:01:40;98936.04;;;1.55;87.42
64632;BME280;58358;50.936;0.246;2023-03-14T05:04:06;98953.85;;;1.68;86.95
64632;BME280;58358;50.936;0.246;2023-03-14T05:06:31;98951.21;;;1.87;87.50
64632;BME280;58358;50.936;0.246;2023-03-14T05:08:57;98969.92;;;1.38;86.50
64632;BME280;58358;50.936;0.246;2023-03-14T05:11:22;98971.12;;;0.70;87.75
64632;BME280;58358;50.936;0.246;2023-03-14T05:13:48;98967.10;;;1.25;86.29
64632;BME280;58358;50.936;0.246;2023-03-14T05:16:13;98986.86;;;1.68;84.52
64632;BME280;58358;50.936;0.246;2023-03-14T05:18:39;98982.53;;;1.88;83.95
64632;BME280;58358;50.936;0.246;2023-03-14T05:21:04;98985.95;;;1.33;84.36
64632;BME280;58358;50.936;0.246;2023-03-14T05:23:30;98997.98;;;0.76;85.04
64632;BME280;58358;50.936;0.246;2023-03-14T05:25:54;98991.54;;;0.61;85.32
64632;BME280;58358;50.936;0.246;2023-03-14T05:28:20;98987.64;;;0.99;83.78
64632;BME280;58358;50.936;0.246;2023-03-14T05:30:45;98992.98;;;0.79;83.49
64632;BME280;58358;50.936;0.246;2023-03-14T05:33:11;98986.43;;;0.71;82.73
64632;BME280;58358;50.936;0.246;2023-03-14T05:35:36;98989.65;;;0.57;83.03
64632;BME280;58358;50.936;0.246;2023-03-14T05:38:02;98990.94;;;0.60;81.44
64632;BME280;58358;50.936;0.246;2023-03-14T05:40:27;99008.51;;;0.63;82.08
64632;BME280;58358;50.936;0.246;2023-03-14T05:42:53;99009.90;;;0.49;80.36
64632;BME280;58358;50.936;0.246;2023-03-14T05:45:18;99016.38;;;0.27;81.83
64632;BME280;58358;50.936;0.246;2023-03-14T05:47:44;99025.45;;;0.32;81.16
64632;BME280;58358;50.936;0.246;2023-03-14T05:50:10;99025.84;;;0.72;80.26
64632;BME280;58358;50.936;0.246;2023-03-14T05:52:35;99038.08;;;1.10;79.59
64632;BME280;58358;50.936;0.246;2023-03-14T05:55:00;99047.45;;;1.51;78.58
64632;BME280;58358;50.936;0.246;2023-03-14T05:57:25;99057.14;;;0.90;79.65
64632;BME280;58358;50.936;0.246;2023-03-14T05:59:50;99065.75;;;0.31;80.43
64632;BME280;58358;50.936;0.246;2023-03-14T06:02:16;99064.28;;;1.26;77.45
64632;BME280;58358;50.936;0.246;2023-03-14T06:04:42;99082.93;;;0.47;79.82
64632;BME280;58358;50.936;0.246;2023-03-14T06:07:08;99095.49;;;1.50;77.15
64632;BME280;58358;50.936;0.246;2023-03-14T06:09:33;99108.42;;;1.33;79.06
64632;BME280;58358;50.936;0.246;2023-03-14T06:11:59;99119.86;;;1.04;79.54
64632;BME280;58358;50.936;0.246;2023-03-14T06:14:24;99120.81;;;1.67;77.20
64632;BME280;58358;50.936;0.246;2023-03-14T06:16:49;99126.52;;;0.98;79.06
64632;BME280;58358;50.936;0.246;2023-03-14T06:19:15;99128.70;;;1.63;78.25
64632;BME280;58358;50.936;0.246;2023-03-14T06:21:40;99135.81;;;1.50;77.17
64632;BME280;58358;50.936;0.246;2023-03-14T06:24:06;99143.86;;;1.43;76.91
64632;BME280;58358;50.936;0.246;2023-03-14T06:26:32;99145.78;;;2.53;75.25
64632;BME280;58358;50.936;0.246;2023-03-14T06:28:56;99153.56;;;2.18;73.45
64632;BME280;58358;50.936;0.246;2023-03-14T06:31:22;99160.97;;;2.09;74.64
64632;BME280;58358;50.936;0.246;2023-03-14T06:33:47;99171.32;;;1.59;76.74
64632;BME280;58358;50.936;0.246;2023-03-14T06:36:13;99176.97;;;0.75;79.19
64632;BME280;58358;50.936;0.246;2023-03-14T06:38:38;99181.08;;;1.33;79.64
64632;BME280;58358;50.936;0.246;2023-03-14T06:41:05;99184.98;;;0.24;80.79
64632;BME280;58358;50.936;0.246;2023-03-14T06:43:29;99199.04;;;1.23;80.71
64632;BME280;58358;50.936;0.246;2023-03-14T06:45:55;99206.02;;;0.32;82.23
64632;BME280;58358;50.936;0.246;2023-03-14T06:48:20;99215.11;;;1.62;80.38
64632;BME280;58358;50.936;0.246;2023-03-14T06:50:47;99222.69;;;1.92;79.14
64632;BME280;58358;50.936;0.246;2023-03-14T06:53:11;99226.49;;;1.68;79.46
64632;BME280;58358;50.936;0.246;2023-03-14T06:55:37;99233.09;;;1.38;79.94
64632;BME280;58358;50.936;0.246;2023-03-14T06:58:02;99239.10;;;1.21;81.16
64632;BME280;58358;50.936;0.246;2023-03-14T07:00:28;99247.76;;;1.27;81.34
64632;BME280;58358;50.936;0.246;2023-03-14T07:02:53;99256.35;;;1.52;81.31
64632;BME280;58358;50.936;0.246;2023-03-14T07:05:19;99262.73;;;1.65;80.33
64632;BME280;58358;50.936;0.246;2023-03-14T07:07:44;99267.38;;;1.47;81.28
64632;BME280;58358;50.936;0.246;2023-03-14T07:10:11;99271.02;;;1.17;82.67
64632;BME280;58358;50.936;0.246;2023-03-14T07:12:35;99274.26;;;1.36;83.31
64632;BME280;58358;50.936;0.246;2023-03-14T07:15:01;99280.58;;;1.27;83.83
64632;BME280;58358;50.936;0.246;2023-03-14T07:17:26;99288.80;;;1.32;83.61
64632;BME280;58358;50.936;0.246;2023-03-14T07:19:52;99291.83;;;1.51;84.38
64632;BME280;58358;50.936;0.246;2023-03-14T07:22:17;99299.71;;;1.84;83.06
64632;BME280;58358;50.936;0.246;2023-03-14T07:24:43;99309.32;;;1.16;83.57
64632;BME280;58358;50.936;0.246;2023-03-14T07:27:08;99313.84;;;2.01;82.98
64632;BME280;58358;50.936;0.246;2023-03-14T07:29:34;99310.51;;;1.20;84.96
64632;BME280;58358;50.936;0.246;2023-03-14T07:31:59;99328.22;;;1.67;84.57
64632;BME280;58358;50.936;0.246;2023-03-14T07:34:25;99332.47;;;1.21;84.26
64632;BME280;58358;50.936;0.246;2023-03-14T07:36:50;99343.24;;;1.70;83.04
64632;BME280;58358;50.936;0.246;2023-03-14T07:39:16;99362.97;;;1.94;81.50
64632;BME280;58358;50.936;0.246;2023-03-14T07:41:41;99357.12;;;1.50;84.35
64632;BME280;58358;50.936;0.246;2023-03-14T07:44:07;99358.88;;;2.36;82.91
64632;BME280;58358;50.936;0.246;2023-03-14T07:46:32;99363.12;;;2.42;81.01
64632;BME280;58358;50.936;0.246;2023-03-14T07:48:58;99368.75;;;2.38;82.21
64632;BME280;58358;50.936;0.246;2023-03-14T07:51:23;99366.36;;;2.16;83.73
64632;BME280;58358;50.936;0.246;2023-03-14T07:53:49;99372.80;;;1.54;83.53
64632;BME280;58358;50.936;0.246;2023-03-14T07:56:14;99386.17;;;2.42;82.16
64632;BME280;58358;50.936;0.246;2023-03-14T07:58:40;99387.10;;;2.04;82.54
64632;BME280;58358;50.936;0.246;2023-03-14T08:01:05;99394.93;;;2.21;81.81
64632;BME280;58358;50.936;0.246;2023-03-14T08:03:30;99394.08;;;2.22;82.06
64632;BME280;58358;50.936;0.246;2023-03-14T08:05:55;99411.87;;;2.02;82.28
64632;BME280;58358;50.936;0.246;2023-03-14T08:08:21;99413.16;;;2.61;79.29
64632;BME280;58358;50.936;0.246;2023-03-14T08:10:47;99423.17;;;2.70;78.85
64632;BME280;58358;50.936;0.246;2023-03-14T08:13:13;99431.85;;;1.72;80.39
64632;BME280;58358;50.936;0.246;2023-03-14T08:15:39;99434.65;;;2.39;79.62
64632;BME280;58358;50.936;0.246;2023-03-14T08:18:04;99441.33;;;2.49;79.88
64632;BME280;58358;50.936;0.246;2023-03-14T08:20:29;99449.76;;;1.95;81.35
64632;BME280;58358;50.936;0.246;2023-03-14T08:22:55;99454.55;;;3.68;76.10
64632;BME280;58358;50.936;0.246;2023-03-14T08:25:20;99465.68;;;2.50;76.89
64632;BME280;58358;50.936;0.246;2023-03-14T08:27:46;99467.18;;;2.37;79.47
64632;BME280;58358;50.936;0.246;2023-03-14T08:30:14;99486.03;;;2.29;80.71
64632;BME280;58358;50.936;0.246;2023-03-14T08:32:38;99490.29;;;2.32;80.65
64632;BME280;58358;50.936;0.246;2023-03-14T08:35:03;99496.82;;;1.75;80.80
64632;BME280;58358;50.936;0.246;2023-03-14T08:37:28;99506.50;;;1.89;81.95
64632;BME280;58358;50.936;0.246;2023-03-14T08:39:54;99511.38;;;2.31;81.52
64632;BME280;58358;50.936;0.246;2023-03-14T08:42:20;99535.53;;;1.73;81.75
64632;BME280;58358;50.936;0.246;2023-03-14T08:44:45;99528.70;;;2.29;80.72
64632;BME280;58358;50.936;0.246;2023-03-14T08:47:11;99534.19;;;1.97;79.98
64632;BME280;58358;50.936;0.246;2023-03-14T08:49:35;99537.89;;;1.99;80.03
64632;BME280;58358;50.936;0.246;2023-03-14T08:52:02;99556.83;;;2.59;79.07
64632;BME280;58358;50.936;0.246;2023-03-14T08:54:27;99549.92;;;2.60;79.14
64632;BME280;58358;50.936;0.246;2023-03-14T08:56:53;99558.62;;;2.23;79.01
64632;BME280;58358;50.936;0.246;2023-03-14T08:59:19;99563.75;;;2.92;76.93
64632;BME280;58358;50.936;0.246;2023-03-14T09:01:45;99582.81;;;2.31;78.92
64632;BME280;58358;50.936;0.246;2023-03-14T09:04:10;99582.79;;;2.23;80.19
64632;BME280;58358;50.936;0.246;2023-03-14T09:06:36;99601.31;;;2.73;79.50
64632;BME280;58358;50.936;0.246;2023-03-14T09:09:02;99597.12;;;2.37;80.81
64632;BME280;58358;50.936;0.246;2023-03-14T09:11:28;99599.43;;;2.87;80.31
64632;BME280;58358;50.936;0.246;2023-03-14T09:13:54;99608.42;;;2.57;80.85
64632;BME280;58358;50.936;0.246;2023-03-14T09:16:20;99615.79;;;2.92;78.63
64632;BME280;58358;50.936;0.246;2023-03-14T09:18:45;99624.72;;;2.53;80.20
64632;BME280;58358;50.936;0.246;2023-03-14T09:21:11;99640.32;;;3.34;78.69
64632;BME280;58358;50.936;0.246;2023-03-14T09:23:37;99645.76;;;4.24;77.39
64632;BME280;58358;50.936;0.246;2023-03-14T09:26:02;99669.05;;;3.02;79.23
64632;BME280;58358;50.936;0.246;2023-03-14T09:28:28;99671.65;;;3.07;78.72
64632;BME280;58358;50.936;0.246;2023-03-14T09:30:54;99694.69;;;2.59;83.09
64632;BME280;58358;50.936;0.246;2023-03-14T09:33:20;99683.09;;;2.43;83.36
64632;BME280;58358;50.936;0.246;2023-03-14T09:35:46;99712.39;;;2.47;82.85
64632;BME280;58358;50.936;0.246;2023-03-14T09:38:12;99695.05;;;3.68;79.91
64632;BME280;58358;50.936;0.246;2023-03-14T09:40:38;99709.85;;;3.30;78.98
64632;BME280;58358;50.936;0.246;2023-03-14T09:43:04;99718.72;;;3.40;79.65
64632;BME280;58358;50.936;0.246;2023-03-14T09:45:33;99722.16;;;4.40;79.15
64632;BME280;58358;50.936;0.246;2023-03-14T09:47:56;99734.06;;;3.14;79.90
64632;BME280;58358;50.936;0.246;2023-03-14T09:50:21;99733.05;;;3.40;79.44
64632;BME280;58358;50.936;0.246;2023-03-14T09:52:49;99732.87;;;4.55;76.00
64632;BME280;58358;50.936;0.246;2023-03-14T09:55:14;99741.92;;;3.15;79.50
64632;BME280;58358;50.936;0.246;2023-03-14T09:57:39;99752.49;;;3.86;79.18
64632;BME280;58358;50.936;0.246;2023-03-14T10:00:10;99759.56;;;3.92;77.64
64632;BME280;58358;50.936;0.246;2023-03-14T10:02:34;99761.19;;;4.99;74.62
64632;BME280;58358;50.936;0.246;2023-03-14T10:04:55;99787.98;;;3.64;78.67
64632;BME280;58358;50.936;0.246;2023-03-14T10:07:27;99785.22;;;2.83;80.19
64632;BME280;58358;50.936;0.246;2023-03-14T10:09:49;99806.54;;;3.00;81.53
64632;BME280;58358;50.936;0.246;2023-03-14T10:12:13;99808.27;;;2.44;82.13
64632;BME280;58358;50.936;0.246;2023-03-14T10:14:45;99817.04;;;2.86;81.63
64632;BME280;58358;50.936;0.246;2023-03-14T10:17:06;99832.16;;;2.84;81.26
64632;BME280;58358;50.936;0.246;2023-03-14T10:19:28;99826.57;;;2.14;84.35
64632;BME280;58358;50.936;0.246;2023-03-14T10:21:54;99828.26;;;3.34;83.05
64632;BME280;58358;50.936;0.246;2023-03-14T10:24:20;99840.94;;;3.73;80.32
64632;BME280;58358;50.936;0.246;2023-03-14T10:26:48;99849.66;;;3.60;79.99
64632;BME280;58358;50.936;0.246;2023-03-14T10:29:12;99860.71;;;3.48;77.93
64632;BME280;58358;50.936;0.246;2023-03-14T10:31:47;99867.74;;;3.19;79.89
64632;BME280;58358;50.936;0.246;2023-03-14T10:34:04;99879.69;;;3.24;81.63
64632;BME280;58358;50.936;0.246;2023-03-14T10:36:29;99895.10;;;3.69;81.61
64632;BME280;58358;50.936;0.246;2023-03-14T10:38:57;99906.15;;;1.97;85.56
64632;BME280;58358;50.936;0.246;2023-03-14T10:41:24;99922.02;;;2.39;87.70
64632;BME280;58358;50.936;0.246;2023-03-14T10:43:45;99939.94;;;2.56;85.60
64632;BME280;58358;50.936;0.246;2023-03-14T10:46:14;99925.89;;;2.71;85.30
64632;BME280;58358;50.936;0.246;2023-03-14T10:48:38;99932.62;;;2.90;82.96
64632;BME280;58358;50.936;0.246;2023-03-14T10:51:05;99947.20;;;2.79;82.70
64632;BME280;58358;50.936;0.246;2023-03-14T10:53:33;99954.55;;;2.34;83.25
64632;BME280;58358;50.936;0.246;2023-03-14T10:55:55;99962.59;;;2.70;81.04
64632;BME280;58358;50.936;0.246;2023-03-14T10:58:22;99971.03;;;2.94;81.45
64632;BME280;58358;50.936;0.246;2023-03-14T11:00:50;99982.53;;;2.39;85.02
64632;BME280;58358;50.936;0.246;2023-03-14T11:03:12;99989.94;;;3.00;82.94
64632;BME280;58358;50.936;0.246;2023-03-14T11:05:40;99986.96;;;2.40;83.50
64632;BME280;58358;50.936;0.246;2023-03-14T11:08:08;99994.91;;;2.60;82.71
64632;BME280;58358;50.936;0.246;2023-03-14T11:10:32;99996.96;;;2.10;82.91
64632;BME280;58358;50.936;0.246;2023-03-14T11:13:03;100007.85;;;2.37;83.60
64632;BME280;58358;50.936;0.246;2023-03-14T11:15:25;100015.78;;;2.45;83.85
64632;BME280;58358;50.936;0.246;2023-03-14T11:17:54;100021.35;;;1.69;84.13
64632;BME280;58358;50.936;0.246;2023-03-14T11:20:26;100033.86;;;1.31;84.92
64632;BME280;58358;50.936;0.246;2023-03-14T11:22:42;100037.80;;;1.82;83.58
64632;BME280;58358;50.936;0.246;2023-03-14T11:25:12;100042.92;;;2.24;82.15
64632;BME280;58358;50.936;0.246;2023-03-14T11:27:34;100053.45;;;3.19;79.87
64632;BME280;58358;50.936;0.246;2023-03-14T11:29:55;100052.36;;;3.19;80.55
64632;BME280;58358;50.936;0.246;2023-03-14T11:32:27;100054.49;;;3.75;75.56
64632;BME280;58358;50.936;0.246;2023-03-14T11:34:51;100054.53;;;3.85;75.84
64632;BME280;58358;50.936;0.246;2023-03-14T11:37:16;100067.69;;;3.17;78.49
64632;BME280;58358;50.936;0.246;2023-03-14T11:39:39;100067.36;;;2.55;79.10
64632;BME280;58358;50.936;0.246;2023-03-14T11:42:03;100072.76;;;2.56;78.51
64632;BME280;58358;50.936;0.246;2023-03-14T11:44:32;100075.03;;;2.76;77.14
64632;BME280;58358;50.936;0.246;2023-03-14T11:46:57;100076.36;;;3.10;77.77
64632;BME280;58358;50.936;0.246;2023-03-14T11:49:29;100072.88;;;3.88;74.02
64632;BME280;58358;50.936;0.246;2023-03-14T11:51:47;100089.94;;;2.05;77.29
64632;BME280;58358;50.936;0.246;2023-03-14T11:54:16;100082.00;;;3.37;76.58
64632;BME280;58358;50.936;0.246;2023-03-14T11:56:43;100090.03;;;3.86;73.70
64632;BME280;58358;50.936;0.246;2023-03-14T11:59:08;100093.18;;;3.34;75.05
64632;BME280;58358;50.936;0.246;2023-03-14T12:01:42;100098.39;;;3.89;72.86
64632;BME280;58358;50.936;0.246;2023-03-14T12:04:00;100102.98;;;4.57;68.51
64632;BME280;58358;50.936;0.246;2023-03-14T12:06:24;100105.02;;;3.84;69.74
64632;BME280;58358;50.936;0.246;2023-03-14T12:08:49;100113.99;;;3.93;69.66
64632;BME280;58358;50.936;0.246;2023-03-14T12:11:17;100117.40;;;4.58;70.58
64632;BME280;58358;50.936;0.246;2023-03-14T12:13:40;100116.09;;;4.66;68.83
64632;BME280;58358;50.936;0.246;2023-03-14T12:16:06;100125.91;;;3.67;70.63
64632;BME280;58358;50.936;0.246;2023-03-14T12:18:32;100118.19;;;4.24;69.63
64632;BME280;58358;50.936;0.246;2023-03-14T12:20:57;100132.03;;;4.83;67.53
64632;BME280;58358;50.936;0.246;2023-03-14T12:23:21;100149.54;;;5.57;62.80
64632;BME280;58358;50.936;0.246;2023-03-14T12:25:47;100135.43;;;4.38;66.44
64632;BME280;58358;50.936;0.246;2023-03-14T12:28:19;100135.51;;;4.19;66.50
64632;BME280;58358;50.936;0.246;2023-03-14T12:30:40;100136.31;;;4.88;63.67
64632;BME280;58358;50.936;0.246;2023-03-14T12:35:35;100149.39;;;3.79;64.23
64632;BME280;58358;50.936;0.246;2023-03-14T12:37:56;100148.55;;;4.02;65.21
64632;BME280;58358;50.936;0.246;2023-03-14T12:40:29;100149.99;;;4.72;63.24
64632;BME280;58358;50.936;0.246;2023-03-14T12:42:56;100151.30;;;5.74;60.73
64632;BME280;58358;50.936;0.246;2023-03-14T12:47:50;100162.01;;;5.36;58.70
64632;BME280;58358;50.936;0.246;2023-03-14T12:50:13;100156.08;;;4.44;59.70
64632;BME280;58358;50.936;0.246;2023-03-14T12:52:34;100170.20;;;4.50;63.46
64632;BME280;58358;50.936;0.246;2023-03-14T12:55:00;100175.67;;;4.50;62.44
64632;BME280;58358;50.936;0.246;2023-03-14T12:57:26;100180.39;;;5.22;59.82
64632;BME280;58358;50.936;0.246;2023-03-14T12:59:51;100182.78;;;5.58;59.29
64632;BME280;58358;50.936;0.246;2023-03-14T13:02:22;100187.73;;;5.74;57.61